Time;durP1;ratioP1;P1;durP2;ratioP2;P2;SDS_P1;SDS_P2;PMS_P1;PMS_P2;Temp;Humidity;BMP_temperature;BMP_pressure;BME280_temperature;BME280_humidity;BME280_pressure;Samples;Min_cycle;Max_cycle;Signal;HPM_P1;HPM_P2
2021/12/16 00:03:02;;;;;;;11.20;8.73;;;;;;;6.54;80.86;102385.66;5090743;28;20394;-52
2021/12/16 00:05:50;;;;;;;14.25;9.77;;;;;;;6.54;80.49;102396.16;5089220;28;20040;-52
2021/12/16 00:08:29;;;;;;;12.35;9.45;;;;;;;6.56;80.94;102397.97;5090110;28;20070;-53
2021/12/16 00:36:07;;;;;;;13.77;9.20;;;;;;;6.57;80.47;102391.88;5044486;28;20033;-53
2021/12/16 00:38:33;;;;;;;13.68;9.40;;;;;;;6.56;80.46;102396.22;5082035;28;20510;-53
2021/12/16 00:41:00;;;;;;;11.95;9.45;;;;;;;6.56;80.78;102390.97;5088659;28;20028;-53
2021/12/16 00:43:34;;;;;;;13.90;10.43;;;;;;;6.58;80.64;102398.88;5091120;28;20047;-53
2021/12/16 00:54:09;;;;;;;13.13;10.20;;;;;;;6.58;80.56;102404.13;5091373;28;20414;-52
2021/12/16 00:56:50;;;;;;;12.55;9.55;;;;;;;6.57;80.48;102402.34;5086329;28;20020;-52
2021/12/16 00:59:38;;;;;;;11.23;9.40;;;;;;;6.58;80.97;102404.13;5088796;28;20490;-52
2021/12/16 01:02:37;;;;;;;13.35;9.10;;;;;;;6.58;80.94;102404.13;5089053;28;20039;-52
2021/12/16 01:08:27;;;;;;;12.43;9.38;;;;;;;6.57;80.73;102407.59;5088511;28;20078;-52
2021/12/16 01:36:06;;;;;;;13.95;10.05;;;;;;;6.59;80.47;102421.63;5089200;28;20076;-52
2021/12/16 01:39:08;;;;;;;11.23;8.63;;;;;;;6.58;80.80;102420.75;5090082;28;20035;-52
2021/12/16 01:49:26;;;;;;;12.70;9.38;;;;;;;6.60;80.65;102428.69;5090420;28;20341;-52
2021/12/16 01:54:51;;;;;;;12.82;9.57;;;;;;;6.60;80.35;102423.44;5090090;28;20435;-53
2021/12/16 01:57:25;;;;;;;11.95;9.32;;;;;;;6.59;80.51;102429.50;5089766;28;20028;-53
2021/12/16 02:00:26;;;;;;;12.95;9.68;;;;;;;6.60;80.48;102429.56;5087381;28;20036;-52
2021/12/16 02:02:56;;;;;;;13.73;9.90;;;;;;;6.61;80.58;102435.72;5088758;28;20047;-52
2021/12/16 02:05:53;;;;;;;14.73;11.07;;;;;;;6.60;80.38;102437.44;5088918;28;20525;-52
2021/12/16 02:08:24;;;;;;;12.95;9.73;;;;;;;6.60;80.69;102431.31;5074341;28;20274;-52
2021/12/16 02:11:37;;;;;;;12.85;9.40;;;;;;;6.60;80.30;102431.31;5087770;28;20028;-52
2021/12/16 02:28:18;;;;;;;13.40;9.15;;;;;;;6.61;80.69;102434.00;5008603;28;20109;-52
2021/12/16 02:38:47;;;;;;;12.55;8.65;;;;;;;6.60;80.47;102429.56;5070658;28;20112;-53
2021/12/16 02:41:13;;;;;;;14.35;9.38;;;;;;;6.61;80.66;102431.38;5088241;28;20027;-52
2021/12/16 02:49:37;;;;;;;12.25;8.85;;;;;;;6.60;80.44;102433.94;5089264;28;20419;-53
2021/12/16 02:52:02;;;;;;;13.75;10.88;;;;;;;6.61;80.48;102440.94;5089189;28;20028;-53
2021/12/16 02:54:28;;;;;;;12.85;9.82;;;;;;;6.62;80.60;102429.63;5089437;28;20039;-52
2021/12/16 02:56:54;;;;;;;12.65;8.90;;;;;;;6.61;80.41;102440.94;5088214;28;20481;-52
2021/12/16 02:59:25;;;;;;;12.73;9.40;;;;;;;6.61;80.61;102447.09;5087437;28;20665;-52
2021/12/16 03:01:55;;;;;;;;;;;;;;;6.62;80.22;102437.47;5088762;28;20499;-53
2021/12/16 03:04:21;;;;;;;11.85;8.98;;;;;;;6.62;80.47;102440.09;5087363;28;19912;-53
2021/12/16 03:06:52;;;;;;;14.93;10.88;;;;;;;6.61;80.35;102441.84;5089763;28;20024;-53
2021/12/16 03:09:26;;;;;;;14.07;10.20;;;;;;;6.62;80.43;102442.72;5087314;28;20020;-52
2021/12/16 03:14:48;;;;;;;14.25;9.95;;;;;;;6.60;80.20;102445.28;5050384;28;20115;-52
2021/12/16 03:17:22;;;;;;;15.52;10.68;;;;;;;6.62;80.12;102442.72;5091172;28;20024;-52
2021/12/16 03:22:39;;;;;;;13.15;10.32;;;;;;;6.63;80.21;102450.66;5092830;28;20039;-52
2021/12/16 03:28:10;;;;;;;12.50;9.25;;;;;;;6.63;80.45;102455.00;5092212;28;20039;-52
2021/12/16 03:30:55;;;;;;;13.68;9.80;;;;;;;6.62;80.35;102447.97;5090189;28;20035;-52
2021/12/16 03:36:15;;;;;;;13.70;10.60;;;;;;;6.63;80.46;102455.00;5091925;28;20031;-52
2021/12/16 03:38:43;;;;;;;12.70;8.10;;;;;;;6.61;80.67;102457.59;5091967;28;20032;-53
2021/12/16 03:41:08;;;;;;;12.57;9.13;;;;;;;6.63;80.32;102449.75;5088487;28;20032;-54
2021/12/16 03:43:36;;;;;;;12.10;9.98;;;;;;;6.62;80.21;102453.22;5088831;28;20348;-52
2021/12/16 03:46:25;;;;;;;12.63;9.88;;;;;;;6.62;80.45;102448.88;5090661;28;20016;-52
2021/12/16 03:49:05;;;;;;;12.27;8.88;;;;;;;6.62;80.43;102446.25;5090321;28;20126;-52
2021/12/16 03:51:54;;;;;;;12.40;9.15;;;;;;;6.61;80.51;102441.84;5090925;28;20108;-53
2021/12/16 03:54:20;;;;;;;12.73;9.43;;;;;;;6.62;80.39;102454.13;5090850;28;20024;-53
2021/12/16 03:56:46;;;;;;;10.90;8.48;;;;;;;6.63;80.30;102449.75;5091528;28;20074;-52
2021/12/16 03:59:14;;;;;;;11.68;8.77;;;;;;;6.63;80.59;102449.75;5088838;28;20028;-52
2021/12/16 04:01:39;;;;;;;12.38;8.20;;;;;;;6.63;80.60;102448.03;5067376;28;20400;-52
2021/12/16 04:04:05;;;;;;;11.48;8.60;;;;;;;6.63;80.04;102461.13;5090033;28;20035;-52
2021/12/16 04:06:33;;;;;;;11.50;9.48;;;;;;;6.63;80.18;102455.91;5091208;28;20071;-52
2021/12/16 04:08:59;;;;;;;10.43;8.35;;;;;;;6.64;80.00;102454.19;5091409;28;20119;-52
2021/12/16 04:11:31;;;;;;;11.05;8.00;;;;;;;6.64;80.02;102446.31;5091457;28;20020;-52
2021/12/16 04:14:00;;;;;;;11.07;7.82;;;;;;;6.64;80.37;102456.81;5091912;28;20024;-52
2021/12/16 04:16:33;;;;;;;9.73;8.05;;;;;;;6.63;80.58;102458.53;5072141;28;20526;-52
2021/12/16 04:19:01;;;;;;;13.30;8.95;;;;;;;6.63;80.49;102449.75;5090869;28;20458;-53
2021/12/16 04:21:27;;;;;;;10.95;8.48;;;;;;;6.64;80.16;102451.56;5090442;28;20024;-52
2021/12/16 04:23:57;;;;;;;12.35;8.68;;;;;;;6.64;80.36;102446.31;5090720;28;20077;-52
2021/12/16 04:26:25;;;;;;;13.30;8.95;;;;;;;6.64;80.07;102452.44;5087760;28;20023;-52
2021/12/16 04:28:51;;;;;;;11.80;8.63;;;;;;;6.63;80.46;102453.28;5073686;28;20090;-52
2021/12/16 04:31:16;;;;;;;13.00;8.70;;;;;;;6.63;80.34;102457.63;5087995;28;20020;-52
2021/12/16 04:33:42;;;;;;;10.95;8.07;;;;;;;6.64;80.15;102459.44;5089767;28;20567;-53
2021/12/16 04:36:11;;;;;;;11.13;8.10;;;;;;;6.63;80.32;102452.38;5091110;28;20506;-53
2021/12/16 04:38:37;;;;;;;10.55;8.10;;;;;;;6.64;80.19;102449.81;5090146;28;20035;-52
2021/12/16 04:41:04;;;;;;;11.23;9.23;;;;;;;6.64;80.37;102446.31;5089827;28;20023;-53
2021/12/16 04:43:39;;;;;;;10.40;7.30;;;;;;;6.62;80.30;102440.09;5090660;28;20027;-52
2021/12/16 04:46:11;;;;;;;10.60;7.93;;;;;;;6.63;80.07;102442.78;5088543;28;20020;-52
2021/12/16 04:48:38;;;;;;;9.82;8.35;;;;;;;6.63;80.27;102445.41;5090414;28;20028;-52
2021/12/16 04:51:06;;;;;;;12.63;9.32;;;;;;;6.63;80.55;102445.41;5071846;28;20047;-52
2021/12/16 04:53:31;;;;;;;11.00;8.93;;;;;;;6.64;80.31;102441.06;5092447;28;20032;-52
2021/12/16 04:55:57;;;;;;;12.43;8.77;;;;;;;6.64;80.20;102448.94;5091596;28;20523;-52
2021/12/16 04:58:23;;;;;;;10.80;8.48;;;;;;;6.63;80.23;102445.41;5090365;28;20069;-52
2021/12/16 05:00:50;;;;;;;13.27;8.98;;;;;;;6.64;80.18;102448.94;5091288;28;20103;-52
2021/12/16 05:03:15;;;;;;;12.80;9.38;;;;;;;6.63;80.08;102440.16;5088480;28;20449;-52
2021/12/16 05:05:40;;;;;;;11.98;9.35;;;;;;;6.65;80.12;102448.09;5088521;28;20122;-52
2021/12/16 05:08:06;;;;;;;13.52;10.15;;;;;;;6.65;80.06;102451.63;5091152;28;20487;-52
2021/12/16 05:10:31;;;;;;;14.38;10.00;;;;;;;6.64;80.51;102452.44;5072740;28;20012;-53
2021/12/16 05:12:58;;;;;;;16.45;10.85;;;;;;;6.65;80.47;102445.47;5089620;28;20407;-52
2021/12/16 05:15:31;;;;;;;16.55;10.75;;;;;;;6.65;80.00;102463.81;5090200;28;20020;-53
2021/12/16 05:17:59;;;;;;;14.82;10.20;;;;;;;6.64;80.41;102455.06;5089688;28;20043;-53
2021/12/16 05:20:32;;;;;;;14.00;10.73;;;;;;;6.65;80.23;102458.56;5072137;28;20016;-53
2021/12/16 05:28:28;;;;;;;17.70;11.55;;;;;;;6.66;80.11;102470.84;5089688;28;20035;-52
2021/12/16 05:30:55;;;;;;;16.63;11.85;;;;;;;6.64;80.37;102468.16;5090493;28;20024;-53
2021/12/16 05:33:21;;;;;;;15.13;10.77;;;;;;;6.65;79.99;102469.06;5086504;28;20027;-52
2021/12/16 05:35:47;;;;;;;16.05;11.50;;;;;;;6.65;80.22;102474.31;5089702;28;20028;-52
2021/12/16 05:38:12;;;;;;;16.35;12.35;;;;;;;6.65;80.44;102476.94;5089899;28;20028;-52
2021/12/16 05:40:38;;;;;;;19.52;12.50;;;;;;;6.65;80.42;102476.94;5090439;28;20099;-52
2021/12/16 05:43:15;;;;;;;22.55;14.55;;;;;;;6.65;80.12;102482.19;5071450;28;20077;-52
2021/12/16 05:45:42;;;;;;;19.17;13.23;;;;;;;6.65;80.51;102479.56;5072683;28;20020;-52
2021/12/16 05:48:12;;;;;;;19.52;12.50;;;;;;;6.66;80.16;102481.34;5089485;28;20028;-52
2021/12/16 05:50:43;;;;;;;20.20;14.02;;;;;;;6.65;80.13;102484.78;5088880;28;20488;-52
2021/12/16 05:53:08;;;;;;;21.40;12.82;;;;;;;6.65;80.17;102490.94;5072297;28;20122;-53
2021/12/16 05:55:34;;;;;;;19.50;13.45;;;;;;;6.65;80.47;102496.19;5090119;28;20107;-52
2021/12/16 05:58:02;;;;;;;18.75;12.25;;;;;;;6.65;80.10;102495.28;5086017;28;20077;-52
2021/12/16 06:00:31;;;;;;;20.35;13.05;;;;;;;6.65;80.17;102492.66;5089830;28;20013;-52
2021/12/16 06:02:58;;;;;;;20.55;13.95;;;;;;;6.65;80.14;102492.66;5087460;28;20452;-52
2021/12/16 06:05:24;;;;;;;20.15;12.88;;;;;;;6.65;80.31;102496.19;5090217;28;20514;-53
2021/12/16 06:07:50;;;;;;;20.45;14.10;;;;;;;6.66;80.38;102503.22;5089761;28;20040;-52
2021/12/16 06:13:00;;;;;;;19.98;13.52;;;;;;;6.65;80.38;102504.06;5088075;28;20650;-52
2021/12/16 06:26:35;;;;;;;21.38;13.10;;;;;;;6.65;80.44;102514.53;5087274;28;20399;-52
2021/12/16 06:29:01;;;;;;;20.20;13.48;;;;;;;6.64;80.05;102519.72;5088053;28;20108;-53
2021/12/16 06:31:27;;;;;;;19.75;12.45;;;;;;;6.66;80.27;102529.44;5089312;28;20047;-52
2021/12/16 06:33:53;;;;;;;20.83;14.23;;;;;;;6.65;80.11;102529.38;5088628;28;20039;-52
2021/12/16 06:36:18;;;;;;;21.52;13.30;;;;;;;6.64;80.20;102538.09;5088858;28;20016;-53
2021/12/16 06:38:43;;;;;;;20.23;13.60;;;;;;;6.66;80.03;102539.03;5089599;28;20035;-53
2021/12/16 06:41:09;;;;;;;21.20;13.15;;;;;;;6.67;80.46;102538.22;5088625;28;20111;-52
2021/12/16 06:43:35;;;;;;;21.73;13.68;;;;;;;6.65;80.42;102532.00;5069298;28;20024;-52
2021/12/16 06:46:04;;;;;;;23.58;13.57;;;;;;;6.66;80.28;102537.31;5091325;28;20016;-52
2021/12/16 06:48:33;;;;;;;20.92;13.30;;;;;;;6.66;79.83;102536.41;5091031;28;20552;-52
2021/12/16 06:51:08;;;;;;;18.65;13.20;;;;;;;6.67;80.15;102538.22;5094059;28;20102;-53
2021/12/16 06:54:03;;;;;;;21.42;13.23;;;;;;;6.67;80.18;102546.06;5090252;28;20023;-53
2021/12/16 06:56:36;;;;;;;20.77;14.05;;;;;;;6.67;80.13;102546.06;5091578;28;20162;-52
2021/12/16 06:59:10;;;;;;;19.65;13.65;;;;;;;6.67;80.22;102543.44;5090109;28;20439;-53
2021/12/16 07:04:09;;;;;;;18.42;12.30;;;;;;;6.67;80.10;102543.44;5090746;28;20032;-53
2021/12/16 07:06:35;;;;;;;21.35;13.82;;;;;;;6.65;80.38;102546.00;5092084;28;20164;-52
2021/12/16 07:09:13;;;;;;;19.98;12.40;;;;;;;6.67;80.08;102561.81;5094891;28;20471;-53
2021/12/16 07:11:41;;;;;;;21.98;14.18;;;;;;;6.67;80.60;102560.06;5095448;28;20040;-53
2021/12/16 07:14:13;;;;;;;21.05;12.90;;;;;;;6.64;80.09;102557.31;5075322;28;20043;-52
2021/12/16 07:16:39;;;;;;;;;;;;;;;6.67;80.04;102567.06;5093071;28;20032;-53
2021/12/16 07:19:05;;;;;;;19.45;12.25;;;;;;;6.65;80.21;102560.84;5091605;28;19954;-53
2021/12/16 07:21:37;;;;;;;19.77;12.57;;;;;;;6.65;80.13;102564.38;5091942;28;20031;-53
2021/12/16 07:24:10;;;;;;;18.63;12.30;;;;;;;6.67;80.26;102572.28;5073287;28;20020;-53
2021/12/16 07:26:36;;;;;;;20.77;13.15;;;;;;;6.66;80.24;102581.88;5090453;28;20032;-52
2021/12/16 07:29:03;;;;;;;22.33;13.57;;;;;;;6.67;80.18;102577.53;5092807;28;20020;-52
2021/12/16 07:31:28;;;;;;;18.05;12.25;;;;;;;6.66;79.86;102573.09;5074290;28;20375;-52
2021/12/16 07:33:54;;;;;;;19.13;11.60;;;;;;;6.65;79.96;102574.84;5092441;28;20110;-52
2021/12/16 07:36:20;;;;;;;17.30;13.18;;;;;;;6.67;80.13;102577.53;5074816;28;20490;-52
2021/12/16 07:38:46;;;;;;;17.67;11.88;;;;;;;6.66;80.28;102587.13;5089941;28;20040;-53
2021/12/16 07:41:12;;;;;;;15.73;11.10;;;;;;;6.65;80.25;102584.44;5092081;28;20625;-52
2021/12/16 07:46:06;;;;;;;20.33;13.02;;;;;;;6.67;80.01;102593.28;5090844;28;20059;-53
2021/12/16 07:48:32;;;;;;;18.50;12.43;;;;;;;6.67;80.34;102601.16;5089540;28;20027;-53
2021/12/16 07:51:00;;;;;;;19.48;12.25;;;;;;;6.67;80.31;102601.16;5092077;28;20012;-52
2021/12/16 07:53:26;;;;;;;22.42;12.80;;;;;;;6.67;80.33;102598.53;5089586;28;20073;-53
2021/12/16 07:55:52;;;;;;;20.27;13.05;;;;;;;6.67;79.92;102598.53;5072329;28;20024;-52
2021/12/16 07:58:19;;;;;;;20.42;12.75;;;;;;;6.67;79.75;102598.53;5069802;28;20028;-52
2021/12/16 08:00:45;;;;;;;20.20;12.80;;;;;;;6.67;80.18;102599.41;5087014;28;20032;-52
2021/12/16 08:03:12;;;;;;;17.80;11.75;;;;;;;6.67;80.19;102609.00;5090978;28;20084;-53
2021/12/16 08:05:42;;;;;;;21.10;13.68;;;;;;;6.66;80.20;102604.56;5088876;28;20032;-53
2021/12/16 08:08:08;;;;;;;18.80;12.50;;;;;;;6.68;80.31;102619.53;5089638;28;20042;-53
2021/12/16 08:10:34;;;;;;;21.67;12.80;;;;;;;6.66;80.16;102617.69;5091820;28;20602;-53
2021/12/16 08:13:03;;;;;;;18.73;12.52;;;;;;;6.66;80.21;102615.06;5091344;28;20028;-53
2021/12/16 08:15:28;;;;;;;17.65;11.65;;;;;;;6.67;80.29;102614.25;5090277;28;20056;-52
2021/12/16 08:17:55;;;;;;;17.35;11.73;;;;;;;6.68;79.91;102621.28;5089338;28;20110;-52
2021/12/16 08:20:21;;;;;;;18.42;11.80;;;;;;;6.68;80.15;102623.91;5092374;28;20049;-52
2021/12/16 08:22:47;;;;;;;14.73;10.45;;;;;;;6.68;79.80;102626.53;5089174;28;20093;-52
2021/12/16 08:25:14;;;;;;;18.23;10.82;;;;;;;6.68;79.80;102626.53;5073223;28;20051;-52
2021/12/16 08:27:41;;;;;;;17.35;11.23;;;;;;;6.68;79.94;102621.28;5073286;28;20040;-52
2021/12/16 08:30:09;;;;;;;15.18;10.65;;;;;;;6.68;80.25;102631.75;5091987;28;20069;-52
2021/12/16 08:32:34;;;;;;;20.33;10.80;;;;;;;6.68;80.17;102642.25;5089312;28;20062;-52
2021/12/16 08:34:59;;;;;;;19.00;11.52;;;;;;;6.67;80.22;102630.00;5091670;28;20054;-52
2021/12/16 08:37:25;;;;;;;13.50;9.88;;;;;;;6.70;79.97;102632.69;5090740;28;20024;-52
2021/12/16 08:39:51;;;;;;;15.45;10.88;;;;;;;6.69;80.18;102638.78;5090254;28;20024;-53
2021/12/16 08:42:17;;;;;;;15.75;10.23;;;;;;;6.68;79.73;102637.00;5071266;28;20023;-52
2021/12/16 08:44:42;;;;;;;15.57;10.55;;;;;;;6.68;80.11;102643.13;5091687;28;20043;-52
2021/12/16 08:47:12;;;;;;;17.98;11.18;;;;;;;6.68;80.03;102647.50;5090664;28;20562;-53
2021/12/16 08:49:37;;;;;;;18.25;11.30;;;;;;;6.69;79.66;102651.91;5090022;28;20055;-52
2021/12/16 08:52:10;;;;;;;16.52;10.57;;;;;;;6.67;80.07;102645.72;5090842;28;20510;-53
2021/12/16 08:54:36;;;;;;;15.32;9.93;;;;;;;6.68;80.16;102648.38;5073323;28;20115;-53
2021/12/16 08:57:03;;;;;;;15.98;10.68;;;;;;;6.68;79.87;102645.75;5089131;28;20024;-53
2021/12/16 08:59:28;;;;;;;14.48;10.63;;;;;;;6.68;79.71;102656.25;5088924;28;20031;-53
2021/12/16 09:01:58;;;;;;;16.33;10.05;;;;;;;6.69;80.13;102657.16;5090311;28;20032;-52
2021/12/16 09:04:24;;;;;;;16.45;10.65;;;;;;;6.68;80.20;102663.22;5088331;28;20027;-52
2021/12/16 09:06:53;;;;;;;13.05;9.70;;;;;;;6.68;80.16;102655.38;5090708;28;20031;-52
2021/12/16 09:09:18;;;;;;;16.42;10.18;;;;;;;6.68;79.54;102660.59;5055582;28;20039;-53
2021/12/16 09:12:02;;;;;;;16.10;10.00;;;;;;;6.68;79.87;102663.22;5090503;28;20368;-52
2021/12/16 09:14:28;;;;;;;14.43;8.30;;;;;;;6.68;80.17;102658.88;5090850;28;20028;-52
2021/12/16 09:16:53;;;;;;;14.70;10.38;;;;;;;6.67;79.73;102661.44;5090916;28;20433;-52
2021/12/16 09:19:19;;;;;;;14.88;10.65;;;;;;;6.67;79.90;102656.22;5071800;28;20571;-53
2021/12/16 09:21:44;;;;;;;15.00;10.50;;;;;;;6.68;80.18;102668.47;5073201;28;20028;-52
2021/12/16 09:24:14;;;;;;;15.93;10.27;;;;;;;6.67;80.17;102653.59;5090402;28;20032;-52
2021/12/16 09:26:40;;;;;;;14.15;9.75;;;;;;;6.67;80.33;102656.22;5089703;28;20048;-52
2021/12/16 09:29:05;;;;;;;14.57;10.00;;;;;;;6.67;80.22;102645.72;5070123;28;20035;-52
2021/12/16 09:31:31;;;;;;;14.73;10.63;;;;;;;6.68;80.07;102643.13;5089173;28;20024;-52
2021/12/16 09:34:04;;;;;;;15.00;10.20;;;;;;;6.69;79.91;102641.41;5071708;28;20051;-52
2021/12/16 09:36:29;;;;;;;14.48;10.40;;;;;;;6.68;80.06;102647.50;5088648;28;20035;-52
2021/12/16 09:38:57;;;;;;;15.70;10.70;;;;;;;6.67;80.12;102654.47;5089769;28;20035;-52
2021/12/16 09:41:22;;;;;;;14.90;10.38;;;;;;;6.68;80.00;102647.50;5087717;28;20016;-53
2021/12/16 09:43:50;;;;;;;17.83;10.40;;;;;;;6.68;79.92;102647.50;5085872;28;20480;-52
2021/12/16 09:46:19;;;;;;;14.18;10.02;;;;;;;6.69;79.96;102654.53;5090505;28;20055;-52
2021/12/16 09:48:46;;;;;;;17.13;10.27;;;;;;;6.69;80.29;102649.28;5053791;28;20033;-53
2021/12/16 09:51:16;;;;;;;13.68;10.02;;;;;;;6.69;80.10;102657.16;5088801;28;20504;-53
2021/12/16 09:53:43;;;;;;;14.90;10.07;;;;;;;6.69;79.76;102654.53;5072498;28;20093;-52
2021/12/16 09:56:09;;;;;;;14.57;10.70;;;;;;;6.67;80.10;102656.22;5072468;28;20103;-52
2021/12/16 09:58:40;;;;;;;19.23;11.73;;;;;;;6.69;80.19;102662.38;5088237;28;20024;-52
2021/12/16 10:01:09;;;;;;;19.88;12.40;;;;;;;6.68;79.98;102651.00;5070968;28;20097;-53
2021/12/16 10:03:35;;;;;;;18.83;12.88;;;;;;;6.68;80.28;102653.63;5088542;28;20034;-52
2021/12/16 10:06:01;;;;;;;17.55;12.43;;;;;;;6.68;80.41;102655.38;5071258;28;20032;-52
2021/12/16 10:08:27;;;;;;;17.20;11.45;;;;;;;6.69;80.33;102665.00;5090154;28;20395;-53
2021/12/16 10:10:52;;;;;;;16.45;11.45;;;;;;;6.67;80.02;102662.31;5089214;28;20486;-52
2021/12/16 10:13:29;;;;;;;15.85;10.32;;;;;;;6.69;80.18;102678.13;5089167;28;20038;-52
2021/12/16 10:18:47;;;;;;;22.90;12.07;;;;;;;6.69;79.84;102670.25;5090118;28;20039;-53
2021/12/16 10:21:13;;;;;;;19.83;12.73;;;;;;;6.68;80.15;102679.84;5091755;28;20107;-52
2021/12/16 10:23:41;;;;;;;15.38;11.57;;;;;;;6.69;80.35;102683.38;5091676;28;20028;-53
2021/12/16 10:26:10;;;;;;;18.02;11.80;;;;;;;6.70;79.84;102687.78;5075658;28;20073;-52
2021/12/16 10:28:38;;;;;;;19.90;11.70;;;;;;;6.70;79.89;102693.00;5076456;28;20062;-52
2021/12/16 10:31:12;;;;;;;18.58;12.48;;;;;;;6.69;80.21;102696.47;5091880;28;20027;-52
2021/12/16 10:33:43;;;;;;;18.05;11.73;;;;;;;6.70;80.22;102695.63;5076768;28;20523;-52
2021/12/16 10:36:22;;;;;;;18.88;11.27;;;;;;;6.70;80.14;102685.16;5094311;28;20020;-52
2021/12/16 10:38:51;;;;;;;16.92;11.85;;;;;;;6.68;80.21;102687.72;5093646;28;20032;-52
2021/12/16 10:41:23;;;;;;;18.02;12.18;;;;;;;6.69;80.27;102696.47;5091558;28;20398;-53
2021/12/16 10:44:06;;;;;;;17.80;12.52;;;;;;;6.70;80.02;102698.25;5072611;28;20025;-53
2021/12/16 10:46:36;;;;;;;17.77;11.63;;;;;;;6.70;80.22;102714.00;5089546;28;20027;-53
2021/12/16 10:49:07;;;;;;;;;;;;;;;6.70;80.26;102703.50;5093720;28;20055;-53
2021/12/16 10:51:40;;;;;;;19.80;12.73;;;;;;;6.68;79.88;102716.56;5092878;28;19919;-53
2021/12/16 10:54:17;;;;;;;20.35;13.10;;;;;;;6.68;80.52;102707.81;5093123;28;20020;-53
2021/12/16 10:56:56;;;;;;;16.83;12.25;;;;;;;6.69;80.33;102704.34;5092282;28;20034;-52
2021/12/16 10:59:34;;;;;;;19.55;13.30;;;;;;;6.70;80.00;102707.88;5086133;28;20027;-52
2021/12/16 11:02:05;;;;;;;23.17;13.70;;;;;;;6.68;80.11;102706.06;5092620;28;20391;-52
2021/12/16 11:04:36;;;;;;;18.50;13.05;;;;;;;6.69;80.36;102712.22;5091670;28;20020;-52
2021/12/16 11:07:24;;;;;;;21.60;14.07;;;;;;;6.69;80.55;102712.22;5092114;28;20041;-53
2021/12/16 11:09:56;;;;;;;21.17;13.00;;;;;;;6.70;80.29;102708.75;5091875;28;20061;-52
2021/12/16 11:12:27;;;;;;;21.58;13.38;;;;;;;6.70;80.45;102700.88;5090735;28;20229;-52
2021/12/16 11:15:13;;;;;;;25.98;15.35;;;;;;;6.70;80.19;102698.25;5093610;28;20039;-52
2021/12/16 11:17:44;;;;;;;21.67;13.77;;;;;;;6.70;80.21;102690.41;5092061;28;20032;-53
2021/12/16 11:20:28;;;;;;;24.17;14.57;;;;;;;6.72;80.49;102690.47;5092103;28;20034;-53
2021/12/16 11:23:00;;;;;;;24.02;14.95;;;;;;;6.72;80.42;102679.97;5091922;28;20081;-52
2021/12/16 11:25:36;;;;;;;23.10;14.32;;;;;;;6.72;79.96;102674.72;5093057;28;20054;-52
2021/12/16 11:28:20;;;;;;;25.92;13.38;;;;;;;6.71;80.04;102684.34;5091718;28;20028;-52
2021/12/16 11:30:51;;;;;;;25.10;15.05;;;;;;;6.72;80.45;102704.47;5091756;28;20047;-52
2021/12/16 11:33:23;;;;;;;19.95;13.63;;;;;;;6.71;80.21;102702.69;5092317;28;20058;-52
2021/12/16 11:36:07;;;;;;;25.38;16.10;;;;;;;6.74;80.50;102717.66;5091427;28;20016;-53
2021/12/16 11:38:41;;;;;;;21.10;13.70;;;;;;;6.71;80.53;102710.56;5090326;28;20024;-52
2021/12/16 11:41:14;;;;;;;23.63;14.45;;;;;;;6.72;80.31;102712.34;5091181;28;20123;-52
2021/12/16 11:43:58;;;;;;;21.85;14.70;;;;;;;6.73;80.54;102708.00;5070407;28;20059;-52
2021/12/16 11:46:32;;;;;;;23.05;14.60;;;;;;;6.72;80.28;102708.81;5089835;28;20048;-52
2021/12/16 11:49:03;;;;;;;24.60;15.20;;;;;;;6.72;80.23;102722.84;5092415;28;20432;-52
2021/12/16 11:51:28;;;;;;;21.73;14.65;;;;;;;6.73;80.23;102716.75;5074413;28;20027;-52
2021/12/16 11:54:00;;;;;;;23.87;14.80;;;;;;;6.73;80.44;102722.00;5093308;28;20119;-52
2021/12/16 11:56:41;;;;;;;25.75;14.65;;;;;;;6.73;80.21;102721.13;5092011;28;20273;-52
2021/12/16 11:59:07;;;;;;;24.80;15.67;;;;;;;6.73;80.42;102718.50;5092417;28;20020;-52
2021/12/16 12:01:32;;;;;;;26.35;16.42;;;;;;;6.73;80.58;102722.00;5089182;28;20150;-52
2021/12/16 12:04:04;;;;;;;20.15;14.27;;;;;;;6.73;80.68;102719.38;5092092;28;20111;-52
2021/12/16 12:06:33;;;;;;;26.58;15.43;;;;;;;6.73;80.34;102727.25;5073759;28;20106;-53
2021/12/16 12:09:00;;;;;;;23.92;14.68;;;;;;;6.74;80.44;102730.78;5074032;28;20024;-53
2021/12/16 12:11:35;;;;;;;22.35;14.65;;;;;;;6.74;80.57;102730.78;5067013;28;20027;-52
2021/12/16 12:14:07;;;;;;;24.17;15.05;;;;;;;6.74;80.50;102725.53;5089841;28;20403;-52
2021/12/16 12:16:35;;;;;;;24.40;15.73;;;;;;;6.73;80.39;102722.00;5092031;28;20023;-52
2021/12/16 12:19:21;;;;;;;23.27;14.50;;;;;;;6.75;80.69;102722.06;5089220;28;20475;-53
2021/12/16 12:21:50;;;;;;;23.30;15.50;;;;;;;6.74;80.82;102718.53;5090865;28;20480;-53
2021/12/16 12:24:19;;;;;;;21.42;14.18;;;;;;;6.75;80.49;102715.09;5073593;28;20024;-52
2021/12/16 12:27:20;;;;;;;22.45;14.05;;;;;;;6.75;80.32;102722.06;5092287;28;20059;-52
2021/12/16 12:29:49;;;;;;;23.27;14.30;;;;;;;6.75;80.76;102728.22;5027157;28;20055;-52
2021/12/16 12:32:19;;;;;;;21.27;14.50;;;;;;;6.75;80.63;102733.47;5077680;28;20028;-52
2021/12/16 12:34:55;;;;;;;21.83;14.13;;;;;;;6.75;80.57;102722.97;5071742;28;20386;-52
2021/12/16 12:37:41;;;;;;;23.20;14.63;;;;;;;6.75;80.78;102722.97;5088673;28;20055;-52
2021/12/16 12:40:19;;;;;;;22.60;14.48;;;;;;;6.75;80.82;102711.56;5075136;28;20044;-52
2021/12/16 12:42:45;;;;;;;21.10;13.35;;;;;;;6.75;80.59;102719.44;5084366;28;20028;-52
2021/12/16 12:45:13;;;;;;;23.50;13.73;;;;;;;6.75;80.68;102722.97;5089717;28;20433;-52
2021/12/16 12:47:40;;;;;;;19.63;12.93;;;;;;;6.76;80.71;102718.59;5071176;28;20038;-52
2021/12/16 12:50:30;;;;;;;25.17;15.80;;;;;;;6.76;80.57;102714.25;5071605;28;20034;-53
2021/12/16 12:52:59;;;;;;;20.08;13.23;;;;;;;6.76;80.79;102708.09;5088245;28;20028;-53
2021/12/16 12:55:31;;;;;;;20.75;13.48;;;;;;;6.78;80.72;102711.69;5085230;28;20146;-52
2021/12/16 12:58:05;;;;;;;26.67;14.52;;;;;;;6.76;80.40;102714.25;5087562;28;20559;-53
2021/12/16 13:00:45;;;;;;;20.80;12.95;;;;;;;6.75;80.62;102715.09;5088715;28;20396;-53
2021/12/16 13:03:17;;;;;;;22.48;13.18;;;;;;;6.76;80.86;102714.25;5088114;28;20027;-52
2021/12/16 13:08:56;;;;;;;21.95;13.55;;;;;;;6.78;80.79;102727.44;5060957;28;20137;-52
2021/12/16 13:11:30;;;;;;;21.05;13.80;;;;;;;6.77;80.88;102734.41;5090283;28;20430;-52
2021/12/16 13:14:08;;;;;;;19.63;13.10;;;;;;;6.78;80.56;102748.41;5071753;28;20022;-52
2021/12/16 13:26:01;;;;;;;20.95;13.20;;;;;;;6.78;80.53;102765.06;5088950;28;20513;-53
2021/12/16 13:28:50;;;;;;;19.40;11.90;;;;;;;6.78;80.79;102756.28;5089565;28;20392;-53
2021/12/16 13:32:11;;;;;;;19.85;12.48;;;;;;;6.78;80.75;102751.94;5072387;28;20072;-52
2021/12/16 13:34:49;;;;;;;16.60;12.32;;;;;;;6.76;80.92;102761.47;5084713;28;20035;-52
2021/12/16 13:37:23;;;;;;;18.25;11.50;;;;;;;6.77;80.90;102760.63;5091007;28;20492;-52
2021/12/16 13:39:53;;;;;;;22.58;12.82;;;;;;;6.79;80.54;102760.69;5090448;28;20036;-52
2021/12/16 13:42:19;;;;;;;18.17;11.53;;;;;;;6.79;80.81;102758.06;5086054;28;20556;-52
2021/12/16 13:44:50;;;;;;;18.77;12.18;;;;;;;6.78;80.56;102759.81;5087302;28;20028;-52
2021/12/16 13:47:33;;;;;;;;;;;;;;;6.78;80.82;102757.19;5072938;28;20494;-52
2021/12/16 14:02:53;;;;;;;;;;;;;;;6.77;80.87;102792.09;5088890;28;20030;-52
2021/12/16 14:08:49;;;;;;;20.00;12.65;;;;;;;6.76;81.12;102785.06;5089645;28;20034;-52
2021/12/16 14:17:53;;;;;;;17.02;11.73;;;;;;;6.78;80.62;102791.28;5080792;28;20569;-53
2021/12/16 14:23:39;;;;;;;19.80;13.07;;;;;;;6.78;81.04;102796.53;5039974;28;20052;-53
2021/12/16 14:26:33;;;;;;;18.08;12.18;;;;;;;6.79;80.99;102797.41;5084881;28;20419;-52
2021/12/16 14:34:54;;;;;;;17.95;10.82;;;;;;;6.80;81.10;102801.81;5087471;28;20031;-52
2021/12/16 14:47:58;;;;;;;18.38;11.23;;;;;;;6.80;80.90;102793.94;5085522;28;20823;-53
2021/12/16 14:50:31;;;;;;;16.57;11.03;;;;;;;6.80;80.82;102788.69;5088506;28;20047;-52
2021/12/16 14:52:58;;;;;;;20.65;10.43;;;;;;;6.82;80.71;102786.13;5086975;28;20032;-52
2021/12/16 14:56:03;;;;;;;16.15;9.88;;;;;;;6.80;80.49;102773.88;5085045;28;20036;-52